Time;durP1;ratioP1;P1;durP2;ratioP2;P2;SDS_P1;SDS_P2;PMS_P1;PMS_P2;Temp;Humidity;BMP_temperature;BMP_pressure;BME280_temperature;BME280_humidity;BME280_pressure;Samples;Min_cycle;Max_cycle;Signal;HPM_P1;HPM_P2
2021/06/26 00:00:50;;;;;;;12.85;8.77;;;15.80;99.90;;;;;;5014182;28;20099;-76
2021/06/26 00:03:16;;;;;;;12.23;8.77;;;15.80;99.90;;;;;;5012141;28;20076;-77
2021/06/26 00:05:41;;;;;;;11.65;8.43;;;15.80;99.90;;;;;;5029472;28;20368;-77
2021/06/26 00:08:07;;;;;;;18.50;10.73;;;15.70;99.90;;;;;;5014230;28;20030;-77
2021/06/26 00:10:32;;;;;;;14.75;8.98;;;15.80;99.90;;;;;;5012811;28;20025;-77
2021/06/26 00:12:58;;;;;;;11.60;9.00;;;15.70;99.90;;;;;;5013111;28;20092;-77
2021/06/26 00:15:23;;;;;;;11.38;8.73;;;15.70;99.90;;;;;;5014004;28;20037;-77
2021/06/26 00:17:49;;;;;;;16.08;9.85;;;15.70;99.90;;;;;;5014170;28;20037;-77
2021/06/26 00:20:14;;;;;;;15.50;9.98;;;15.70;99.90;;;;;;5012706;28;20026;-77
2021/06/26 00:22:40;;;;;;;15.02;9.50;;;15.70;99.90;;;;;;5012849;28;20101;-76
2021/06/26 00:25:06;;;;;;;13.43;9.57;;;15.70;99.90;;;;;;4994402;28;20026;-77
2021/06/26 00:27:32;;;;;;;11.45;9.23;;;15.60;99.90;;;;;;4994279;28;20506;-77
2021/06/26 00:29:57;;;;;;;17.75;9.70;;;15.60;99.90;;;;;;4994105;28;20387;-77
2021/06/26 00:32:23;;;;;;;14.88;10.32;;;15.60;99.90;;;;;;5008937;28;20069;-77
2021/06/26 00:34:48;;;;;;;15.40;10.20;;;15.60;99.90;;;;;;5007181;28;20449;-77
2021/06/26 00:37:14;;;;;;;13.95;9.68;;;15.50;99.90;;;;;;5012413;28;20037;-77
2021/06/26 00:39:40;;;;;;;15.05;10.68;;;15.50;99.90;;;;;;5013619;28;20486;-77
2021/06/26 00:42:06;;;;;;;12.10;9.25;;;15.50;99.90;;;;;;5007318;28;20026;-77
2021/06/26 00:44:31;;;;;;;13.55;10.05;;;15.50;99.90;;;;;;4993848;28;20073;-77
2021/06/26 00:46:59;;;;;;;15.57;10.95;;;15.50;99.90;;;;;;4993802;28;20440;-77
2021/06/26 00:49:25;;;;;;;16.13;10.82;;;15.40;99.90;;;;;;5008924;28;20033;-77
2021/06/26 00:51:50;;;;;;;13.80;10.38;;;15.40;99.90;;;;;;4993988;28;20026;-77
2021/06/26 00:54:16;;;;;;;13.65;10.32;;;15.40;99.90;;;;;;5012030;28;20034;-77
2021/06/26 00:56:42;;;;;;;14.68;10.02;;;15.40;99.90;;;;;;5012022;28;20497;-77
2021/06/26 00:59:08;;;;;;;19.88;10.40;;;15.40;99.90;;;;;;5013110;28;20037;-77
2021/06/26 01:01:34;;;;;;;14.75;10.25;;;15.40;99.90;;;;;;5012866;28;20490;-77
2021/06/26 01:03:59;;;;;;;13.73;10.40;;;15.40;99.90;;;;;;4997485;28;20121;-77
2021/06/26 01:06:25;;;;;;;13.45;9.38;;;15.40;99.90;;;;;;4993481;28;20026;-77
2021/06/26 01:08:50;;;;;;;18.90;11.00;;;15.40;99.90;;;;;;4993443;28;20030;-77
2021/06/26 01:11:16;;;;;;;14.52;10.65;;;15.40;99.90;;;;;;4993228;28;20034;-77
2021/06/26 01:13:41;;;;;;;17.60;10.75;;;15.40;99.90;;;;;;5018049;28;20026;-77
2021/06/26 01:16:07;;;;;;;14.48;10.00;;;15.40;99.90;;;;;;5012862;28;20033;-77
2021/06/26 01:18:33;;;;;;;18.67;10.73;;;15.40;99.90;;;;;;5012857;28;20076;-77
2021/06/26 01:20:58;;;;;;;15.77;8.45;;;15.40;99.90;;;;;;5012781;28;20117;-77
2021/06/26 01:23:25;;;;;;;13.20;9.88;;;15.40;99.90;;;;;;5006832;28;20026;-77
2021/06/26 01:25:51;;;;;;;14.57;10.02;;;15.40;99.90;;;;;;5008271;28;20431;-76
2021/06/26 01:28:16;;;;;;;20.38;12.25;;;15.40;99.90;;;;;;5009099;28;20030;-77
2021/06/26 01:30:42;;;;;;;19.10;11.10;;;15.40;99.90;;;;;;5001488;28;20382;-77
2021/06/26 01:33:08;;;;;;;16.05;11.90;;;15.30;99.90;;;;;;5012312;28;20022;-76
2021/06/26 01:35:34;;;;;;;19.02;11.48;;;15.30;99.90;;;;;;5012546;28;20105;-77
2021/06/26 01:38:01;;;;;;;17.88;12.63;;;15.30;99.90;;;;;;5012584;28;20444;-77
2021/06/26 01:40:28;;;;;;;15.57;11.18;;;15.30;99.90;;;;;;5010921;28;20022;-77
2021/06/26 01:42:55;;;;;;;17.25;11.63;;;15.30;99.90;;;;;;5012090;28;20056;-77
2021/06/26 01:45:21;;;;;;;16.05;11.25;;;15.30;99.90;;;;;;5011983;28;20032;-77
2021/06/26 01:47:56;;;;;;;16.15;11.75;;;15.30;99.90;;;;;;5011200;28;20022;-77
2021/06/26 01:50:24;;;;;;;17.50;11.90;;;15.30;99.90;;;;;;5011724;28;20022;-77
2021/06/26 01:52:50;;;;;;;15.95;12.57;;;15.30;99.90;;;;;;5010674;28;20030;-77
2021/06/26 01:55:17;;;;;;;18.23;14.73;;;15.30;99.90;;;;;;5012394;28;20029;-77
2021/06/26 01:57:43;;;;;;;22.45;13.60;;;15.30;99.90;;;;;;5012268;28;20115;-76
2021/06/26 02:00:10;;;;;;;17.42;13.25;;;15.30;99.90;;;;;;5012204;28;20506;-77
2021/06/26 02:02:36;;;;;;;16.05;12.55;;;15.30;99.90;;;;;;4995956;28;20117;-77
2021/06/26 02:05:03;;;;;;;18.70;13.30;;;15.30;99.90;;;;;;4991455;28;20058;-77
2021/06/26 02:07:28;;;;;;;19.40;13.98;;;15.30;99.90;;;;;;4991191;28;20030;-77
2021/06/26 02:09:54;;;;;;;19.27;14.57;;;15.30;99.90;;;;;;4992579;28;20023;-77
2021/06/26 02:12:19;;;;;;;16.48;12.77;;;15.20;99.90;;;;;;5008285;28;20040;-77
2021/06/26 02:14:45;;;;;;;16.85;12.10;;;15.30;99.90;;;;;;5007175;28;20034;-77
2021/06/26 02:17:11;;;;;;;20.20;13.55;;;15.30;99.90;;;;;;5001221;28;20034;-77
2021/06/26 02:19:36;;;;;;;26.60;16.38;;;15.30;99.90;;;;;;5012080;28;20529;-77
2021/06/26 02:22:02;;;;;;;21.13;15.43;;;15.30;99.90;;;;;;5006055;28;20058;-77
2021/06/26 02:24:27;;;;;;;20.92;14.57;;;15.20;99.90;;;;;;4991228;28;20026;-77
2021/06/26 02:26:53;;;;;;;20.67;15.20;;;15.30;99.90;;;;;;4992358;28;20031;-77
2021/06/26 02:29:18;;;;;;;19.83;14.05;;;15.20;99.90;;;;;;4992368;28;20445;-77
2021/06/26 02:31:44;;;;;;;19.35;14.32;;;15.20;99.90;;;;;;4992154;28;20033;-77
2021/06/26 02:34:13;;;;;;;19.98;14.00;;;15.20;99.90;;;;;;5011815;28;20022;-77
2021/06/26 02:36:39;;;;;;;23.65;14.77;;;15.20;99.90;;;;;;5011112;28;20026;-77
2021/06/26 02:39:05;;;;;;;18.33;14.52;;;15.20;99.90;;;;;;4996500;28;20027;-77
2021/06/26 02:41:30;;;;;;;20.52;15.75;;;15.20;99.90;;;;;;5010999;28;20084;-77
2021/06/26 02:43:56;;;;;;;21.80;14.73;;;15.20;99.90;;;;;;5010877;28;20026;-77
2021/06/26 02:46:21;;;;;;;18.33;14.15;;;15.20;99.90;;;;;;5015757;28;20040;-77
2021/06/26 02:48:48;;;;;;;17.15;13.70;;;15.20;99.90;;;;;;5014407;28;20025;-77
2021/06/26 02:51:14;;;;;;;21.58;15.27;;;15.20;99.90;;;;;;5015508;28;20041;-77
2021/06/26 02:53:40;;;;;;;19.63;13.57;;;15.20;99.90;;;;;;5013627;28;20517;-77
2021/06/26 02:56:05;;;;;;;23.17;14.98;;;15.20;99.90;;;;;;5014198;28;20072;-77
2021/06/26 02:58:31;;;;;;;23.48;15.63;;;15.30;99.90;;;;;;5011520;28;20034;-77
2021/06/26 03:00:57;;;;;;;22.33;14.90;;;15.20;99.90;;;;;;5015264;28;20029;-77
2021/06/26 03:03:22;;;;;;;19.95;14.82;;;15.20;99.90;;;;;;5010670;28;20022;-76
2021/06/26 03:05:48;;;;;;;21.33;14.82;;;15.30;99.90;;;;;;4994527;28;20025;-77
2021/06/26 03:08:13;;;;;;;20.58;14.18;;;15.30;99.90;;;;;;4995732;28;20022;-77
2021/06/26 03:10:39;;;;;;;21.05;15.43;;;15.30;99.90;;;;;;4995659;28;20034;-77
2021/06/26 03:13:04;;;;;;;20.30;14.35;;;15.20;99.90;;;;;;4995278;28;20064;-77
2021/06/26 03:15:32;;;;;;;19.98;14.23;;;15.30;99.90;;;;;;5013536;28;20121;-76
2021/06/26 03:17:57;;;;;;;19.27;14.00;;;15.30;99.90;;;;;;5015076;28;20030;-77
2021/06/26 03:20:23;;;;;;;22.33;14.68;;;15.30;99.90;;;;;;5015036;28;20029;-77
2021/06/26 03:22:48;;;;;;;21.30;14.40;;;15.30;99.90;;;;;;5013495;28;20022;-77
2021/06/26 03:25:14;;;;;;;22.98;14.75;;;15.30;99.90;;;;;;5001243;28;20042;-77
2021/06/26 03:27:41;;;;;;;20.25;14.15;;;15.40;99.90;;;;;;5003837;28;20024;-77
2021/06/26 03:30:07;;;;;;;23.58;15.38;;;15.30;99.90;;;;;;5014867;28;20470;-77
2021/06/26 03:32:33;;;;;;;17.95;13.25;;;15.40;99.90;;;;;;5014520;28;20120;-77
2021/06/26 03:34:59;;;;;;;19.85;13.57;;;15.40;99.90;;;;;;5014075;28;20170;-77
2021/06/26 03:37:25;;;;;;;20.23;14.57;;;15.40;99.90;;;;;;5014892;28;20108;-76
2021/06/26 03:39:51;;;;;;;20.35;14.55;;;15.40;99.90;;;;;;5014851;28;20029;-77
2021/06/26 03:42:16;;;;;;;21.05;16.10;;;15.40;99.90;;;;;;5014302;28;20029;-77
2021/06/26 03:44:42;;;;;;;22.70;13.55;;;15.40;99.90;;;;;;5012940;28;20030;-77
2021/06/26 03:47:07;;;;;;;18.10;13.27;;;15.30;99.90;;;;;;5012944;28;20060;-77
2021/06/26 03:49:37;;;;;;;23.83;15.25;;;15.40;99.90;;;;;;5013335;28;20552;-77
2021/06/26 03:52:04;;;;;;;22.02;14.35;;;15.50;99.90;;;;;;5014307;28;20028;-77
2021/06/26 03:54:29;;;;;;;20.63;13.07;;;15.50;99.90;;;;;;5014461;28;20697;-76
2021/06/26 03:56:55;;;;;;;25.00;15.90;;;15.50;99.90;;;;;;4995349;28;20042;-77
2021/06/26 03:59:20;;;;;;;19.58;14.35;;;15.60;99.90;;;;;;4994815;28;20103;-77
2021/06/26 04:01:46;;;;;;;20.02;15.05;;;15.60;99.90;;;;;;4993264;28;20441;-77
2021/06/26 04:04:12;;;;;;;21.92;15.60;;;15.70;99.90;;;;;;5009673;28;20471;-77
2021/06/26 04:06:38;;;;;;;24.33;16.38;;;15.70;99.90;;;;;;5007966;28;20037;-77
2021/06/26 04:09:04;;;;;;;22.98;16.13;;;15.80;99.90;;;;;;5014244;28;20386;-77
2021/06/26 04:11:30;;;;;;;17.63;14.45;;;15.80;99.90;;;;;;5013876;28;20030;-77
2021/06/26 04:13:55;;;;;;;21.52;16.55;;;15.90;99.90;;;;;;5013957;28;20029;-77
2021/06/26 04:16:21;;;;;;;28.23;17.77;;;15.90;99.90;;;;;;5012262;28;20026;-77
2021/06/26 04:18:46;;;;;;;37.40;18.38;;;16.00;99.90;;;;;;5014791;28;20104;-77
2021/06/26 04:21:12;;;;;;;21.90;17.50;;;16.00;99.90;;;;;;5012512;28;20026;-77
2021/06/26 04:23:38;;;;;;;34.80;19.67;;;16.10;99.90;;;;;;5012555;28;20110;-77
2021/06/26 04:26:03;;;;;;;22.83;16.55;;;16.10;99.90;;;;;;5009195;28;20025;-77
2021/06/26 04:28:29;;;;;;;26.25;19.58;;;16.10;99.90;;;;;;4994173;28;20030;-77
2021/06/26 04:30:55;;;;;;;22.48;16.98;;;16.10;99.90;;;;;;4994178;28;20069;-77
2021/06/26 04:33:20;;;;;;;29.27;19.67;;;16.20;99.90;;;;;;4993986;28;20026;-77
2021/06/26 04:35:46;;;;;;;32.13;20.50;;;16.20;99.90;;;;;;5009203;28;20034;-77
2021/06/26 04:38:11;;;;;;;24.58;18.25;;;16.30;99.90;;;;;;5011547;28;20064;-77
2021/06/26 04:40:37;;;;;;;25.77;18.65;;;16.30;99.90;;;;;;5013565;28;20517;-77
2021/06/26 04:43:04;;;;;;;35.22;19.60;;;16.40;99.90;;;;;;5013092;28;20042;-77
2021/06/26 04:45:30;;;;;;;22.88;17.63;;;16.40;99.90;;;;;;5013611;28;20437;-77
2021/06/26 04:48:00;;;;;;;23.73;17.08;;;16.50;99.90;;;;;;5000434;28;20034;-77
2021/06/26 04:50:26;;;;;;;20.52;15.60;;;16.50;99.90;;;;;;4993908;28;20019;-77
2021/06/26 04:52:51;;;;;;;26.10;18.63;;;16.60;99.90;;;;;;4993309;28;20080;-77
2021/06/26 04:55:17;;;;;;;23.92;19.08;;;16.70;99.90;;;;;;4993766;28;20023;-77
2021/06/26 04:57:44;;;;;;;22.27;17.77;;;16.80;99.90;;;;;;4993847;28;20045;-77
2021/06/26 05:00:09;;;;;;;32.95;20.00;;;16.90;99.90;;;;;;5008975;28;20660;-77
2021/06/26 05:02:35;;;;;;;23.30;16.58;;;16.90;99.90;;;;;;4994551;28;20038;-77
2021/06/26 05:05:01;;;;;;;25.60;16.88;;;17.00;99.90;;;;;;4993611;28;20019;-77
2021/06/26 05:07:26;;;;;;;26.00;18.95;;;17.10;99.90;;;;;;5010693;28;20027;-76
2021/06/26 05:09:52;;;;;;;26.58;18.48;;;17.20;99.90;;;;;;5013011;28;20434;-77
2021/06/26 05:12:18;;;;;;;32.70;21.08;;;17.20;99.90;;;;;;5012679;28;20072;-77
2021/06/26 05:14:43;;;;;;;28.45;18.30;;;17.30;99.90;;;;;;5013027;28;20068;-77
2021/06/26 05:17:09;;;;;;;27.52;19.17;;;17.30;99.90;;;;;;5012543;28;20034;-77
2021/06/26 05:19:35;;;;;;;23.45;15.35;;;17.30;99.90;;;;;;4995541;28;20117;-76
2021/06/26 05:22:00;;;;;;;24.88;18.17;;;17.60;99.90;;;;;;5008012;28;20116;-76
2021/06/26 05:24:26;;;;;;;28.90;17.05;;;17.60;99.90;;;;;;5026055;28;20033;-77
2021/06/26 05:26:51;;;;;;;24.02;17.08;;;17.60;99.90;;;;;;5012757;28;20455;-77
2021/06/26 05:29:17;;;;;;;32.78;18.58;;;17.70;99.90;;;;;;5000787;28;20140;-77
2021/06/26 05:31:42;;;;;;;24.15;17.30;;;17.70;99.90;;;;;;4992902;28;20034;-77
2021/06/26 05:34:08;;;;;;;24.98;17.50;;;17.80;99.90;;;;;;4992995;28;20442;-77
2021/06/26 05:36:34;;;;;;;24.48;17.73;;;18.00;99.90;;;;;;4993082;28;20479;-77
2021/06/26 05:39:01;;;;;;;23.10;16.48;;;18.00;99.90;;;;;;4995337;28;20391;-77
2021/06/26 05:41:27;;;;;;;20.10;15.20;;;18.00;99.90;;;;;;5008587;28;20030;-77
2021/06/26 05:43:52;;;;;;;19.70;14.43;;;18.10;99.90;;;;;;4993624;28;20027;-77
2021/06/26 05:46:18;;;;;;;20.33;13.23;;;18.20;99.90;;;;;;4992895;28;20394;-77
2021/06/26 05:48:43;;;;;;;21.25;14.85;;;18.30;99.90;;;;;;4994031;28;20558;-77
2021/06/26 05:51:14;;;;;;;19.55;14.85;;;18.40;99.90;;;;;;5012257;28;20444;-77
2021/06/26 05:53:39;;;;;;;22.58;14.88;;;18.40;99.90;;;;;;5012238;28;20494;-77
2021/06/26 05:56:05;;;;;;;21.73;12.40;;;18.50;99.90;;;;;;5011057;28;20088;-77
2021/06/26 05:58:33;;;;;;;20.05;12.57;;;18.60;99.90;;;;;;5012314;28;20025;-77
2021/06/26 06:01:00;;;;;;;19.55;12.70;;;18.50;99.90;;;;;;5009083;28;20556;-77
2021/06/26 06:03:25;;;;;;;19.77;12.88;;;18.50;99.90;;;;;;5010169;28;20026;-77
2021/06/26 06:05:51;;;;;;;17.10;12.82;;;18.50;99.90;;;;;;5011966;28;20505;-77
2021/06/26 06:08:20;;;;;;;18.15;14.10;;;18.80;99.90;;;;;;5011921;28;20030;-80
2021/06/26 06:10:47;;;;;;;24.15;15.43;;;18.80;99.90;;;;;;5010457;28;20036;-78
2021/06/26 06:13:17;;;;;;;21.20;14.93;;;18.90;99.90;;;;;;5011781;28;20029;-79
2021/06/26 06:15:44;;;;;;;21.55;14.75;;;19.00;99.90;;;;;;5011611;28;20390;-80
2021/06/26 06:18:14;;;;;;;16.67;12.05;;;19.00;99.90;;;;;;5011946;28;20109;-80
2021/06/26 06:20:40;;;;;;;22.75;15.32;;;19.00;99.90;;;;;;5011090;28;20037;-80
2021/06/26 06:23:07;;;;;;;32.03;17.58;;;19.00;99.90;;;;;;5010367;28;20022;-81
2021/06/26 06:25:33;;;;;;;27.70;18.52;;;18.90;99.90;;;;;;5011914;28;20065;-80
2021/06/26 06:28:01;;;;;;;24.17;17.48;;;19.00;99.90;;;;;;5010690;28;20022;-81
2021/06/26 06:30:27;;;;;;;30.95;17.38;;;19.00;99.90;;;;;;5006950;28;20034;-80
2021/06/26 06:32:52;;;;;;;19.05;14.30;;;19.20;99.90;;;;;;4993730;28;20023;-81
2021/06/26 06:35:18;;;;;;;25.95;18.45;;;19.30;99.90;;;;;;5011930;28;20030;-81
2021/06/26 06:37:43;;;;;;;27.65;17.27;;;19.40;99.90;;;;;;5011480;28;20026;-81
2021/06/26 06:40:13;;;;;;;16.67;11.88;;;19.60;99.90;;;;;;5013524;28;20041;-81
2021/06/26 06:42:40;;;;;;;19.83;13.30;;;19.80;99.90;;;;;;5010137;28;20104;-81
2021/06/26 06:45:06;;;;;;;24.83;14.02;;;20.00;99.90;;;;;;4992185;28;20403;-81
2021/06/26 06:47:32;;;;;;;30.65;18.92;;;20.40;99.90;;;;;;5008897;28;20500;-81
2021/06/26 06:49:58;;;;;;;23.38;17.33;;;20.30;99.90;;;;;;4993222;28;20118;-81
2021/06/26 06:52:23;;;;;;;31.08;18.00;;;20.50;99.90;;;;;;4993094;28;20498;-82
2021/06/26 06:54:49;;;;;;;24.95;16.92;;;20.50;99.90;;;;;;4992136;28;20057;-81
2021/06/26 06:57:14;;;;;;;21.92;15.38;;;20.60;99.90;;;;;;4993309;28;20185;-81
2021/06/26 06:59:40;;;;;;;25.17;16.92;;;20.60;99.90;;;;;;5007517;28;20033;-81
2021/06/26 07:02:06;;;;;;;22.52;13.45;;;20.50;99.90;;;;;;4991691;28;20031;-82
2021/06/26 07:04:31;;;;;;;22.77;16.48;;;20.70;99.90;;;;;;5023547;28;20023;-82
2021/06/26 07:06:57;;;;;;;31.65;17.38;;;20.60;99.90;;;;;;4992040;28;20054;-82
2021/06/26 07:09:23;;;;;;;33.75;18.23;;;20.70;99.90;;;;;;5000080;28;20570;-81
2021/06/26 07:11:49;;;;;;;33.28;16.73;;;20.70;99.90;;;;;;5006840;28;20038;-81
2021/06/26 07:14:14;;;;;;;24.38;15.88;;;20.80;99.90;;;;;;5006775;28;20104;-81
2021/06/26 07:16:40;;;;;;;27.23;18.40;;;20.90;99.90;;;;;;5006694;28;20045;-81
2021/06/26 07:19:05;;;;;;;25.60;18.00;;;21.20;99.90;;;;;;5006882;28;20069;-82
2021/06/26 07:21:32;;;;;;;25.48;17.35;;;21.10;99.90;;;;;;4993365;28;20038;-81
2021/06/26 07:23:58;;;;;;;22.67;15.55;;;21.10;99.90;;;;;;4995255;28;20051;-81
2021/06/26 07:26:24;;;;;;;29.90;16.05;;;21.10;99.90;;;;;;4995212;28;20118;-82
2021/06/26 07:28:49;;;;;;;21.95;13.43;;;21.30;99.90;;;;;;4998094;28;20465;-81
2021/06/26 07:31:15;;;;;;;40.35;18.92;;;21.40;99.90;;;;;;5014892;28;20037;-81
2021/06/26 07:33:41;;;;;;;25.50;17.67;;;21.60;99.90;;;;;;5003507;28;20133;-81
2021/06/26 07:36:06;;;;;;;24.02;16.80;;;21.60;99.90;;;;;;4995043;28;20065;-81
2021/06/26 07:38:32;;;;;;;36.22;20.70;;;21.80;99.90;;;;;;4994984;28;20037;-81
2021/06/26 07:40:57;;;;;;;26.15;17.38;;;21.70;99.90;;;;;;4994923;28;20062;-81
2021/06/26 07:43:24;;;;;;;21.63;16.30;;;21.60;99.90;;;;;;4999766;28;20029;-81
2021/06/26 07:45:50;;;;;;;25.15;16.13;;;21.50;99.90;;;;;;5014589;28;20037;-81
2021/06/26 07:48:16;;;;;;;22.52;15.77;;;21.70;99.90;;;;;;5013247;28;20048;-81
2021/06/26 07:50:41;;;;;;;25.27;17.58;;;21.70;99.90;;;;;;5014491;28;20080;-83
2021/06/26 07:53:07;;;;;;;20.52;14.15;;;21.60;99.90;;;;;;5013455;28;20038;-81
2021/06/26 07:55:34;;;;;;;31.58;19.35;;;21.80;99.90;;;;;;4995043;28;20137;-81
2021/06/26 07:57:59;;;;;;;23.85;16.08;;;21.60;99.90;;;;;;4994821;28;20048;-81
2021/06/26 08:00:25;;;;;;;24.88;17.42;;;21.80;99.90;;;;;;4993277;28;20550;-81
2021/06/26 08:02:51;;;;;;;25.85;18.45;;;21.60;99.90;;;;;;4994382;28;20475;-82
2021/06/26 08:05:16;;;;;;;25.60;19.08;;;21.30;99.90;;;;;;4994808;28;20034;-82
2021/06/26 08:07:42;;;;;;;26.05;17.48;;;21.40;99.90;;;;;;4994537;28;20101;-81
2021/06/26 08:10:08;;;;;;;27.25;17.05;;;21.00;99.90;;;;;;5009594;28;20077;-81
2021/06/26 08:12:33;;;;;;;28.85;15.95;;;20.90;99.90;;;;;;4994172;28;20479;-82
2021/06/26 08:15:01;;;;;;;26.48;17.58;;;20.80;99.90;;;;;;5003819;28;20041;-81
2021/06/26 08:17:27;;;;;;;26.45;19.52;;;20.70;99.90;;;;;;4999856;28;20025;-82
2021/06/26 08:19:52;;;;;;;28.85;20.58;;;20.70;99.90;;;;;;5010107;28;20030;-83
2021/06/26 08:22:18;;;;;;;34.17;21.23;;;20.60;99.90;;;;;;5008423;28;20080;-83
2021/06/26 08:24:44;;;;;;;29.10;19.58;;;20.50;99.90;;;;;;5006580;28;20044;-83
2021/06/26 08:27:09;;;;;;;24.35;16.10;;;20.40;99.90;;;;;;5008979;28;20414;-80
2021/06/26 08:29:35;;;;;;;35.25;20.13;;;20.50;99.90;;;;;;5008818;28;20478;-80
2021/06/26 08:32:01;;;;;;;28.15;19.30;;;20.60;99.90;;;;;;5010400;28;20033;-79
2021/06/26 08:34:27;;;;;;;34.97;19.27;;;20.40;99.90;;;;;;5012264;28;20034;-77
2021/06/26 08:36:53;;;;;;;27.20;17.52;;;20.30;99.90;;;;;;5006030;28;20079;-77
2021/06/26 08:39:20;;;;;;;26.00;18.00;;;20.30;99.90;;;;;;5013417;28;20026;-77
2021/06/26 08:41:48;;;;;;;21.77;14.30;;;20.30;99.90;;;;;;5013318;28;20033;-77
2021/06/26 08:44:14;;;;;;;29.00;19.15;;;20.40;99.90;;;;;;5013423;28;20026;-77
2021/06/26 08:46:46;;;;;;;27.15;18.10;;;20.40;99.90;;;;;;5008427;28;20072;-77
2021/06/26 08:49:11;;;;;;;27.05;18.67;;;20.30;99.90;;;;;;4993920;28;20393;-77
2021/06/26 08:51:38;;;;;;;28.50;17.85;;;20.40;99.90;;;;;;4992341;28;20113;-77
2021/06/26 08:54:09;;;;;;;26.40;19.60;;;20.40;99.90;;;;;;4993681;28;20407;-77
2021/06/26 08:56:35;;;;;;;31.52;20.38;;;20.40;99.90;;;;;;4995621;28;20104;-77
2021/06/26 08:59:00;;;;;;;25.35;16.10;;;20.40;99.90;;;;;;5013276;28;20021;-75
2021/06/26 09:01:26;;;;;;;36.78;19.88;;;20.50;99.90;;;;;;5012845;28;20061;-77
2021/06/26 09:04:04;;;;;;;27.13;18.10;;;20.60;99.90;;;;;;5013024;28;20054;-77
2021/06/26 09:06:33;;;;;;;32.97;21.55;;;20.60;99.90;;;;;;5012439;28;20014;-76
2021/06/26 09:08:58;;;;;;;32.38;21.65;;;20.70;99.90;;;;;;4993599;28;20015;-77
2021/06/26 09:11:25;;;;;;;29.95;18.90;;;20.80;99.90;;;;;;4993124;28;20085;-77
2021/06/26 09:13:51;;;;;;;31.70;19.40;;;20.90;99.90;;;;;;4993270;28;20700;-77
2021/06/26 09:16:16;;;;;;;37.63;23.27;;;21.20;99.90;;;;;;4993366;28;20062;-77
2021/06/26 09:18:48;;;;;;;27.15;18.85;;;21.20;99.90;;;;;;5008246;28;20104;-77
2021/06/26 09:21:37;;;;;;;28.65;20.15;;;21.40;99.90;;;;;;5012696;28;20084;-77
2021/06/26 09:24:12;;;;;;;35.95;19.80;;;21.50;99.90;;;;;;5012689;28;20022;-77
2021/06/26 09:26:53;;;;;;;35.17;23.98;;;21.40;99.90;;;;;;5012726;28;20475;-77
2021/06/26 09:29:19;;;;;;;32.97;18.85;;;21.50;99.90;;;;;;4994954;28;20042;-77
2021/06/26 09:31:56;;;;;;;35.53;21.98;;;21.50;99.90;;;;;;4991735;28;20026;-77
2021/06/26 09:34:23;;;;;;;39.55;23.45;;;21.50;99.90;;;;;;5007993;28;20057;-77
2021/06/26 09:37:12;;;;;;;36.92;23.80;;;21.50;99.90;;;;;;4992948;28;20030;-77
2021/06/26 09:39:39;;;;;;;33.10;20.48;;;21.40;99.90;;;;;;5025011;28;20026;-77
2021/06/26 09:42:28;;;;;;;37.55;22.15;;;21.40;99.90;;;;;;5012124;28;20026;-77
2021/06/26 09:45:02;;;;;;;32.38;20.70;;;21.60;99.90;;;;;;5010618;28;20026;-77
2021/06/26 09:47:41;;;;;;;30.52;20.35;;;21.70;99.90;;;;;;5010014;28;20018;-78
2021/06/26 09:50:20;;;;;;;32.88;20.98;;;21.80;99.90;;;;;;4992761;28;20018;-79
2021/06/26 09:52:59;;;;;;;34.70;20.92;;;21.80;99.90;;;;;;4992239;28;20038;-78
2021/06/26 09:55:27;;;;;;;33.20;23.85;;;22.00;99.90;;;;;;5007948;28;20097;-80
2021/06/26 09:58:01;;;;;;;30.17;21.83;;;21.90;99.90;;;;;;4995230;28;20498;-80
2021/06/26 10:00:29;;;;;;;32.33;22.23;;;22.10;99.90;;;;;;5012261;28;20105;-79
2021/06/26 10:02:56;;;;;;;32.63;20.77;;;21.90;99.90;;;;;;5010842;28;20041;-78
2021/06/26 10:05:22;;;;;;;34.92;20.63;;;22.30;99.90;;;;;;5012243;28;20030;-78
2021/06/26 10:07:48;;;;;;;32.70;21.48;;;22.20;99.90;;;;;;5012173;28;20072;-79
2021/06/26 10:10:22;;;;;;;26.65;19.73;;;22.30;99.90;;;;;;5001116;28;20049;-78
2021/06/26 10:12:49;;;;;;;32.63;23.23;;;22.50;99.90;;;;;;5011954;28;20030;-79
2021/06/26 10:15:16;;;;;;;37.05;22.67;;;22.70;99.90;;;;;;5012039;28;20033;-79
2021/06/26 10:17:41;;;;;;;29.13;19.63;;;22.50;99.90;;;;;;5011724;28;20054;-79
2021/06/26 10:20:09;;;;;;;27.55;20.40;;;22.60;99.90;;;;;;5011049;28;20064;-79
2021/06/26 10:22:40;;;;;;;34.97;22.25;;;22.90;99.90;;;;;;5010503;28;20490;-78
2021/06/26 10:25:07;;;;;;;31.13;20.10;;;23.00;99.90;;;;;;5011984;28;20022;-78
2021/06/26 10:27:33;;;;;;;26.98;18.35;;;23.20;99.90;;;;;;5011896;28;20058;-79
2021/06/26 10:30:28;;;;;;;35.05;21.98;;;23.40;99.90;;;;;;5000134;28;20030;-78
2021/06/26 10:32:59;;;;;;;35.88;23.80;;;23.50;99.90;;;;;;4991570;28;20046;-78
2021/06/26 10:35:27;;;;;;;35.40;24.65;;;23.30;99.90;;;;;;5007330;28;20023;-78
2021/06/26 10:38:01;;;;;;;36.25;22.67;;;23.30;99.90;;;;;;4987533;28;20553;-80
2021/06/26 10:40:48;;;;;;;33.25;19.60;;;23.60;99.90;;;;;;5005258;28;20064;-79
2021/06/26 10:43:31;;;;;;;31.05;20.58;;;23.70;99.90;;;;;;5007153;28;20038;-79
2021/06/26 10:46:07;;;;;;;;;;;24.10;99.90;;;;;;5007026;28;20489;-79
2021/06/26 10:48:33;;;;;;;31.95;21.95;;;24.60;99.90;;;;;;5004212;28;20270;-79
2021/06/26 10:50:59;;;;;;;32.25;21.83;;;24.70;99.90;;;;;;5002388;28;20628;-78
2021/06/26 10:53:34;;;;;;;31.17;19.48;;;24.60;99.90;;;;;;5011262;28;20041;-78
2021/06/26 10:56:15;;;;;;;25.17;16.90;;;24.40;99.90;;;;;;5011490;28;20030;-77
2021/06/26 10:58:45;;;;;;;33.45;20.02;;;24.30;99.90;;;;;;5014183;28;20033;-78
2021/06/26 11:01:17;;;;;;;32.83;21.98;;;24.00;99.90;;;;;;5013732;28;20493;-77
2021/06/26 11:03:44;;;;;;;31.00;21.02;;;23.80;99.90;;;;;;5015276;28;20022;-77
2021/06/26 11:06:26;;;;;;;27.92;18.45;;;23.70;99.90;;;;;;5014034;28;20057;-77
2021/06/26 11:09:07;;;;;;;31.92;21.70;;;23.50;99.90;;;;;;5015207;28;20014;-76
2021/06/26 11:11:50;;;;;;;28.08;20.65;;;23.20;99.90;;;;;;5013503;28;20026;-77
2021/06/26 11:14:18;;;;;;;31.33;20.02;;;23.00;99.90;;;;;;5013955;28;20032;-77
2021/06/26 11:16:55;;;;;;;38.97;21.85;;;22.90;99.90;;;;;;5014692;28;20029;-77
2021/06/26 11:19:27;;;;;;;32.97;22.00;;;22.50;99.90;;;;;;5014917;28;20030;-77
2021/06/26 11:21:55;;;;;;;33.65;21.33;;;22.50;99.90;;;;;;5011329;28;20493;-77
2021/06/26 11:24:33;;;;;;;36.85;22.98;;;22.40;99.90;;;;;;5014902;28;20026;-77
2021/06/26 11:26:59;;;;;;;33.15;20.63;;;22.10;99.90;;;;;;5013686;28;20033;-77
2021/06/26 11:29:32;;;;;;;36.58;21.73;;;22.10;99.90;;;;;;5014762;28;20414;-77
2021/06/26 11:31:59;;;;;;;34.78;21.73;;;22.00;99.90;;;;;;5006218;28;20034;-77
2021/06/26 11:34:25;;;;;;;34.28;22.52;;;22.00;99.90;;;;;;4995139;28;20539;-77
2021/06/26 11:37:03;;;;;;;33.10;21.52;;;22.10;99.90;;;;;;5010254;28;20121;-77
2021/06/26 11:39:30;;;;;;;30.35;20.60;;;22.20;99.90;;;;;;5010020;28;20030;-78
2021/06/26 11:41:56;;;;;;;31.33;21.00;;;22.50;99.90;;;;;;5010063;28;20038;-78
2021/06/26 11:44:31;;;;;;;29.58;19.65;;;22.70;99.90;;;;;;4994797;28;20033;-77
2021/06/26 11:47:06;;;;;;;35.75;20.40;;;22.80;99.90;;;;;;4993631;28;20029;-77
2021/06/26 11:49:51;;;;;;;36.92;20.48;;;22.80;99.90;;;;;;5026780;28;20050;-78
2021/06/26 11:52:17;;;;;;;28.90;19.80;;;22.90;99.90;;;;;;4998996;28;20046;-77
2021/06/26 11:54:44;;;;;;;32.65;18.98;;;22.80;99.90;;;;;;5013994;28;20040;-76
2021/06/26 11:57:14;;;;;;;35.08;19.23;;;23.00;99.90;;;;;;4994631;28;20053;-77
2021/06/26 11:59:41;;;;;;;25.95;15.98;;;23.20;99.90;;;;;;5010017;28;20034;-77
2021/06/26 12:02:08;;;;;;;30.65;17.23;;;23.40;99.90;;;;;;4994857;28;20030;-78
2021/06/26 12:04:33;;;;;;;25.27;19.13;;;23.30;99.90;;;;;;4994786;28;20024;-77
2021/06/26 12:06:59;;;;;;;25.65;18.35;;;23.40;99.90;;;;;;5009342;28;20034;-77
2021/06/26 12:09:25;;;;;;;26.95;17.60;;;23.40;99.90;;;;;;5009614;28;20026;-78
2021/06/26 12:11:54;;;;;;;27.05;18.65;;;23.70;99.90;;;;;;5027375;28;20029;-78
2021/06/26 12:14:32;;;;;;;26.67;17.50;;;23.90;99.90;;;;;;5012637;28;20057;-78
2021/06/26 12:17:05;;;;;;;24.60;17.80;;;23.90;99.90;;;;;;5014014;28;20033;-77
2021/06/26 12:19:31;;;;;;;;;;;24.00;99.90;;;;;;5014281;28;20553;-77
2021/06/26 12:21:58;;;;;;;29.40;20.25;;;23.80;99.90;;;;;;5008688;28;19972;-78
2021/06/26 12:24:25;;;;;;;32.55;19.00;;;23.90;99.90;;;;;;4994082;28;20098;-78
2021/06/26 12:27:02;;;;;;;29.65;19.45;;;23.60;99.90;;;;;;4992944;28;20064;-78
2021/06/26 12:29:27;;;;;;;32.15;18.67;;;23.60;99.90;;;;;;4994238;28;20066;-77